createdAt,value
2023-05-19T00:00:54.963Z,96239.00
2023-05-19T00:01:55.208Z,96235.00
2023-05-19T00:02:55.065Z,96237.00
2023-05-19T00:03:55.033Z,96239.00
2023-05-19T00:04:55.057Z,96237.00
2023-05-19T00:05:55.047Z,96237.00
2023-05-19T00:06:55.225Z,96233.00
2023-05-19T00:07:55.084Z,96229.00
2023-05-19T00:08:55.012Z,96231.00
2023-05-19T00:09:55.150Z,96233.00
2023-05-19T00:10:56.140Z,96229.00
2023-05-19T00:11:55.161Z,96231.00
2023-05-19T00:12:55.391Z,96231.00
2023-05-19T00:13:56.331Z,96227.00
2023-05-19T00:14:55.218Z,96225.00
2023-05-19T00:15:55.610Z,96225.00
2023-05-19T00:16:56.338Z,96225.00
2023-05-19T00:17:56.468Z,96223.00
2023-05-19T00:18:56.609Z,96227.00
2023-05-19T00:19:55.355Z,96225.00
2023-05-19T00:20:55.473Z,96225.00
2023-05-19T00:21:55.645Z,96223.00
2023-05-19T00:22:55.602Z,96225.00
2023-05-19T00:23:55.427Z,96223.00
2023-05-19T00:24:55.408Z,96223.00
2023-05-19T00:25:55.616Z,96225.00
2023-05-19T00:26:55.494Z,96223.00
2023-05-19T00:27:56.559Z,96225.00
2023-05-19T00:28:56.616Z,96225.00
2023-05-19T00:29:55.650Z,96223.00
2023-05-19T00:30:56.873Z,96225.00
2023-05-19T00:31:56.000Z,96223.00
2023-05-19T00:32:56.078Z,96221.00
2023-05-19T00:33:57.083Z,96223.00
2023-05-19T00:34:56.857Z,96223.00
2023-05-19T00:35:55.874Z,96225.00
2023-05-19T00:36:56.997Z,96227.00
2023-05-19T00:37:56.981Z,96227.00
2023-05-19T00:38:55.925Z,96227.00
2023-05-19T00:39:56.948Z,96229.00
2023-05-19T00:40:56.226Z,96233.00
2023-05-19T00:41:56.027Z,96227.00
2023-05-19T00:42:56.173Z,96227.00
2023-05-19T00:43:57.173Z,96227.00
2023-05-19T00:44:56.157Z,96229.00
2023-05-19T00:45:56.292Z,96229.00
2023-05-19T00:46:57.218Z,96229.00
2023-05-19T00:47:57.374Z,96227.00
2023-05-19T00:48:56.433Z,96229.00
2023-05-19T00:49:57.452Z,96227.00
2023-05-19T00:50:56.305Z,96229.00
2023-05-19T00:51:56.472Z,96227.00
2023-05-19T00:52:56.480Z,96227.00
2023-05-19T00:53:57.369Z,96225.00
2023-05-19T00:54:57.398Z,96227.00
2023-05-19T00:55:56.461Z,96223.00
2023-05-19T00:56:57.531Z,96223.00
2023-05-19T00:57:57.596Z,96223.00
2023-05-19T00:58:57.453Z,96223.00
2023-05-19T00:59:57.659Z,96221.00
2023-05-19T01:00:57.756Z,96223.00
2023-05-19T01:01:57.618Z,96221.00
2023-05-19T01:02:57.803Z,96219.00
2023-05-19T01:03:57.039Z,96217.00
2023-05-19T01:04:56.536Z,96217.00
2023-05-19T01:05:57.565Z,96219.00
2023-05-19T01:06:57.816Z,96221.00
2023-05-19T01:07:57.766Z,96223.00
2023-05-19T01:08:57.628Z,96221.00
2023-05-19T01:09:56.770Z,96225.00
2023-05-19T01:10:56.665Z,96227.00
2023-05-19T01:11:57.690Z,96225.00
2023-05-19T01:12:57.059Z,96223.00
2023-05-19T01:13:57.811Z,96225.00
2023-05-19T01:14:57.089Z,96225.00
2023-05-19T01:15:58.154Z,96223.00
2023-05-19T01:16:56.956Z,96219.00
2023-05-19T01:17:57.935Z,96223.00
2023-05-19T01:18:58.049Z,96221.00
2023-05-19T01:19:58.065Z,96223.00
2023-05-19T01:20:57.205Z,96221.00
2023-05-19T01:21:57.248Z,96225.00
2023-05-19T01:22:57.238Z,96223.00
2023-05-19T01:23:57.151Z,96221.00
2023-05-19T01:24:57.302Z,96221.00
2023-05-19T01:25:57.356Z,96221.00
2023-05-19T01:26:57.428Z,96221.00
2023-05-19T01:27:57.324Z,96221.00
2023-05-19T01:28:58.384Z,96223.00
2023-05-19T01:29:57.679Z,96223.00
2023-05-19T01:30:57.742Z,96221.00
2023-05-19T01:31:57.595Z,96223.00
2023-05-19T01:32:57.601Z,96219.00
2023-05-19T01:33:57.801Z,96223.00
2023-05-19T01:34:58.643Z,96219.00
2023-05-19T01:35:58.739Z,96221.00
2023-05-19T01:36:57.625Z,96221.00
2023-05-19T01:37:57.649Z,96219.00
2023-05-19T01:38:57.850Z,96217.00
2023-05-19T01:39:57.763Z,96215.00
2023-05-19T01:40:58.717Z,96215.00
2023-05-19T01:41:57.786Z,96213.00
2023-05-19T01:42:57.996Z,96215.00
2023-05-19T01:43:58.048Z,96213.00
2023-05-19T01:44:57.808Z,96213.00
2023-05-19T01:45:57.972Z,96209.00
2023-05-19T01:46:58.864Z,96213.00
2023-05-19T01:47:59.020Z,96211.00
2023-05-19T01:48:57.903Z,96209.00
2023-05-19T01:49:58.082Z,96211.00
2023-05-19T01:50:59.151Z,96215.00
2023-05-19T01:51:58.069Z,96213.00
2023-05-19T01:52:59.036Z,96213.00
2023-05-19T01:53:59.179Z,96217.00
2023-05-19T01:54:59.256Z,96215.00
2023-05-19T01:55:58.376Z,96213.00
2023-05-19T01:56:59.131Z,96211.00
2023-05-19T01:57:58.116Z,96213.00
2023-05-19T01:58:58.131Z,96215.00
2023-05-19T01:59:58.187Z,96213.00
2023-05-19T02:00:59.367Z,96215.00
2023-05-19T02:01:58.291Z,96211.00
2023-05-19T02:02:58.293Z,96213.00
2023-05-19T02:03:58.261Z,96213.00
2023-05-19T02:04:58.210Z,96213.00
2023-05-19T02:05:59.385Z,96215.00
2023-05-19T02:06:59.310Z,96213.00
2023-05-19T02:07:59.326Z,96213.00
2023-05-19T02:08:58.495Z,96213.00
2023-05-19T02:09:58.380Z,96215.00
2023-05-19T02:10:58.627Z,96213.00
2023-05-19T02:11:58.473Z,96217.00
2023-05-19T02:12:58.729Z,96217.00
2023-05-19T02:13:58.457Z,96215.00
2023-05-19T02:14:58.770Z,96213.00
2023-05-19T02:15:58.778Z,96213.00
2023-05-19T02:16:59.613Z,96217.00
2023-05-19T02:17:58.846Z,96215.00
2023-05-19T02:18:59.583Z,96215.00
2023-05-19T02:19:58.518Z,96215.00
2023-05-19T02:20:59.643Z,96217.00
2023-05-19T02:21:58.871Z,96219.00
2023-05-19T02:22:58.842Z,96217.00
2023-05-19T02:23:59.918Z,96219.00
2023-05-19T02:24:58.717Z,96219.00
2023-05-19T02:25:58.941Z,96213.00
2023-05-19T02:26:59.891Z,96213.00
2023-05-19T02:27:58.891Z,96215.00
2023-05-19T02:28:59.878Z,96213.00
2023-05-19T02:29:59.029Z,96217.00
2023-05-19T02:30:59.902Z,96221.00
2023-05-19T02:31:59.106Z,96219.00
2023-05-19T02:32:59.015Z,96221.00
2023-05-19T02:33:59.076Z,96217.00
2023-05-19T02:35:00.008Z,96217.00
2023-05-19T02:36:00.037Z,96219.00
2023-05-19T02:36:59.034Z,96217.00
2023-05-19T02:37:59.336Z,96221.00
2023-05-19T02:38:59.157Z,96223.00
2023-05-19T02:40:00.267Z,96219.00
2023-05-19T02:41:00.301Z,96221.00
2023-05-19T02:42:00.474Z,96221.00
2023-05-19T02:42:59.619Z,96219.00
2023-05-19T02:43:59.443Z,96219.00
2023-05-19T02:44:59.568Z,96215.00
2023-05-19T02:46:00.627Z,96215.00
2023-05-19T02:47:00.392Z,96213.00
2023-05-19T02:48:00.662Z,96213.00
2023-05-19T02:48:59.566Z,96213.00
2023-05-19T02:50:00.756Z,96209.00
2023-05-19T02:50:59.594Z,96209.00
2023-05-19T02:51:59.627Z,96207.00
2023-05-19T02:52:59.909Z,96211.00
2023-05-19T02:53:59.709Z,96209.00
2023-05-19T02:55:00.926Z,96207.00
2023-05-19T02:56:00.811Z,96205.00
2023-05-19T02:56:59.779Z,96205.00
2023-05-19T02:57:59.868Z,96202.00
2023-05-19T02:58:59.782Z,96202.00
2023-05-19T02:59:59.918Z,96202.00
2023-05-19T03:01:00.816Z,96202.00
2023-05-19T03:02:00.098Z,96202.00
2023-05-19T03:03:00.042Z,96202.00
2023-05-19T03:04:00.986Z,96204.00
2023-05-19T03:05:00.214Z,96202.00
2023-05-19T03:06:01.177Z,96204.00
2023-05-19T03:07:01.148Z,96204.00
2023-05-19T03:08:00.218Z,96202.00
2023-05-19T03:09:01.001Z,96202.00
2023-05-19T03:10:01.058Z,96200.00
2023-05-19T03:11:01.314Z,96200.00
2023-05-19T03:12:01.111Z,96198.00
2023-05-19T03:13:01.461Z,96194.00
2023-05-19T03:14:00.243Z,96198.00
2023-05-19T03:15:00.328Z,96196.00
2023-05-19T03:16:01.379Z,96196.00
2023-05-19T03:17:00.646Z,96196.00
2023-05-19T03:18:01.724Z,96192.00
2023-05-19T03:19:00.788Z,96194.00
2023-05-19T03:20:00.520Z,96196.00
2023-05-19T03:21:01.755Z,96194.00
2023-05-19T03:22:01.485Z,96194.00
2023-05-19T03:23:00.784Z,96196.00
2023-05-19T03:24:01.583Z,96194.00
2023-05-19T03:25:01.624Z,96200.00
2023-05-19T03:26:00.715Z,96200.00
2023-05-19T03:27:00.879Z,96202.00
2023-05-19T03:28:00.618Z,96198.00
2023-05-19T03:29:00.907Z,96198.00
2023-05-19T03:30:00.693Z,96194.00
2023-05-19T03:31:01.862Z,96196.00
2023-05-19T03:32:01.856Z,96196.00
2023-05-19T03:33:02.065Z,96196.00
2023-05-19T03:34:01.977Z,96198.00
2023-05-19T03:35:00.906Z,96198.00
2023-05-19T03:36:01.211Z,96196.00
2023-05-19T03:37:01.072Z,96198.00
2023-05-19T03:38:01.219Z,96198.00
2023-05-19T03:39:02.024Z,96196.00
2023-05-19T03:40:01.317Z,96196.00
2023-05-19T03:41:01.373Z,96196.00
2023-05-19T03:42:02.179Z,96196.00
2023-05-19T03:43:01.330Z,96194.00
2023-05-19T03:44:02.348Z,96192.00
2023-05-19T03:45:01.405Z,96194.00
2023-05-19T03:46:02.514Z,96192.00
2023-05-19T03:47:02.564Z,96194.00
2023-05-19T03:48:02.448Z,96198.00
2023-05-19T03:49:01.652Z,96198.00
2023-05-19T03:50:01.389Z,96200.00
2023-05-19T03:51:01.587Z,96202.00
2023-05-19T03:52:02.603Z,96202.00
2023-05-19T03:53:02.503Z,96202.00
2023-05-19T03:54:02.503Z,96200.00
2023-05-19T03:55:02.503Z,96205.00
2023-05-19T03:56:01.521Z,96204.00
2023-05-19T03:57:01.535Z,96205.00
2023-05-19T03:58:01.578Z,96207.00
2023-05-19T03:59:02.609Z,96205.00
2023-05-19T04:00:01.615Z,96204.00
2023-05-19T04:01:02.558Z,96207.00
2023-05-19T04:02:02.643Z,96209.00
2023-05-19T04:03:02.808Z,96209.00
2023-05-19T04:04:02.734Z,96209.00
2023-05-19T04:05:01.761Z,96209.00
2023-05-19T04:06:01.768Z,96213.00
2023-05-19T04:07:01.791Z,96205.00
2023-05-19T04:08:01.815Z,96207.00
2023-05-19T04:09:02.827Z,96207.00
2023-05-19T04:10:02.901Z,96209.00
2023-05-19T04:11:02.011Z,96204.00
2023-05-19T04:12:01.930Z,96204.00
2023-05-19T04:13:02.997Z,96205.00
2023-05-19T04:14:03.047Z,96204.00
2023-05-19T04:15:03.076Z,96205.00
2023-05-19T04:16:03.135Z,96205.00
2023-05-19T04:17:03.229Z,96205.00
2023-05-19T04:18:02.317Z,96205.00
2023-05-19T04:19:03.326Z,96205.00
2023-05-19T04:20:03.239Z,96205.00
2023-05-19T04:21:03.286Z,96204.00
2023-05-19T04:22:03.342Z,96202.00
2023-05-19T04:23:03.324Z,96202.00
2023-05-19T04:24:03.317Z,96200.00
2023-05-19T04:25:02.324Z,96200.00
2023-05-19T04:26:02.349Z,96198.00
2023-05-19T04:27:03.371Z,96198.00
2023-05-19T04:28:02.593Z,96200.00
2023-05-19T04:29:02.456Z,96200.00
2023-05-19T04:30:02.444Z,96200.00
2023-05-19T04:31:02.476Z,96202.00
2023-05-19T04:32:03.487Z,96202.00
2023-05-19T04:33:03.562Z,96202.00
2023-05-19T04:34:02.559Z,96202.00
2023-05-19T04:35:02.520Z,96202.00
2023-05-19T04:36:03.578Z,96200.00
2023-05-19T04:37:03.597Z,96200.00
2023-05-19T04:38:03.638Z,96200.00
2023-05-19T04:39:03.636Z,96202.00
2023-05-19T04:40:03.716Z,96202.00
2023-05-19T04:41:03.738Z,96200.00
2023-05-19T04:42:02.743Z,96202.00
2023-05-19T04:43:03.797Z,96204.00
2023-05-19T04:44:03.800Z,96204.00
2023-05-19T04:45:02.823Z,96200.00
2023-05-19T04:46:03.874Z,96200.00
2023-05-19T04:47:04.016Z,96200.00
2023-05-19T04:48:04.008Z,96200.00
2023-05-19T04:49:03.895Z,96202.00
2023-05-19T04:50:03.986Z,96200.00
2023-05-19T04:51:03.982Z,96198.00
2023-05-19T04:52:04.045Z,96200.00
2023-05-19T04:53:04.047Z,96198.00
2023-05-19T04:54:03.038Z,96198.00
2023-05-19T04:55:04.052Z,96198.00
2023-05-19T04:56:04.079Z,96198.00
2023-05-19T04:57:03.182Z,96202.00
2023-05-19T04:58:04.166Z,96202.00
2023-05-19T04:59:04.232Z,96198.00
2023-05-19T05:00:03.245Z,96198.00
2023-05-19T05:01:04.261Z,96196.00
2023-05-19T05:02:04.345Z,96198.00
2023-05-19T05:03:03.401Z,96200.00
2023-05-19T05:04:04.438Z,96196.00
2023-05-19T05:05:04.635Z,96196.00
2023-05-19T05:06:03.392Z,96202.00
2023-05-19T05:07:04.406Z,96202.00
2023-05-19T05:08:03.502Z,96202.00
2023-05-19T05:09:04.533Z,96198.00
2023-05-19T05:10:04.494Z,96198.00
2023-05-19T05:11:03.589Z,96196.00
2023-05-19T05:12:04.543Z,96200.00
2023-05-19T05:13:04.594Z,96194.00
2023-05-19T05:14:04.590Z,96194.00
2023-05-19T05:15:04.718Z,96194.00
2023-05-19T05:16:04.708Z,96196.00
2023-05-19T05:17:03.698Z,96196.00
2023-05-19T05:18:03.802Z,96200.00
2023-05-19T05:19:04.829Z,96196.00
2023-05-19T05:20:03.839Z,96200.00
2023-05-19T05:21:04.868Z,96200.00
2023-05-19T05:22:04.932Z,96196.00
2023-05-19T05:23:04.981Z,96196.00
2023-05-19T05:24:03.955Z,96196.00
2023-05-19T05:25:03.966Z,96194.00
2023-05-19T05:26:05.169Z,96194.00
2023-05-19T05:27:05.152Z,96192.00
2023-05-19T05:28:05.170Z,96194.00
2023-05-19T05:29:05.108Z,96194.00
2023-05-19T05:30:04.082Z,96190.00
2023-05-19T05:31:04.247Z,96194.00
2023-05-19T05:32:04.432Z,96196.00
2023-05-19T05:33:04.285Z,96198.00
2023-05-19T05:34:04.207Z,96198.00
2023-05-19T05:35:05.237Z,96200.00
2023-05-19T05:36:05.281Z,96194.00
2023-05-19T05:37:05.417Z,96198.00
2023-05-19T05:38:05.405Z,96198.00
2023-05-19T05:39:04.457Z,96202.00
2023-05-19T05:40:05.422Z,96202.00
2023-05-19T05:41:05.463Z,96200.00
2023-05-19T05:42:05.503Z,96196.00
2023-05-19T05:43:05.650Z,96198.00
2023-05-19T05:44:05.659Z,96198.00
2023-05-19T05:45:04.664Z,96196.00
2023-05-19T05:46:05.696Z,96196.00
2023-05-19T05:47:05.774Z,96198.00
2023-05-19T05:48:04.772Z,96202.00
2023-05-19T05:49:04.741Z,96202.00
2023-05-19T05:50:04.786Z,96198.00
2023-05-19T05:51:05.927Z,96200.00
2023-05-19T05:52:06.802Z,96198.00
2023-05-19T05:53:05.955Z,96196.00
2023-05-19T05:54:06.020Z,96198.00
2023-05-19T05:55:05.035Z,96198.00
2023-05-19T05:56:06.022Z,96202.00
2023-05-19T05:57:06.123Z,96202.00
2023-05-19T05:58:06.127Z,96202.00
2023-05-19T05:59:06.207Z,96202.00
2023-05-19T06:00:05.242Z,96198.00
2023-05-19T06:01:06.158Z,96194.00
2023-05-19T06:02:05.229Z,96198.00
2023-05-19T06:03:05.388Z,96196.00
2023-05-19T06:04:05.234Z,96198.00
2023-05-19T06:05:06.225Z,96196.00
2023-05-19T06:06:06.251Z,96198.00
2023-05-19T06:07:06.314Z,96198.00
2023-05-19T06:08:05.465Z,96200.00
2023-05-19T06:09:06.397Z,96194.00
2023-05-19T06:10:05.598Z,96196.00
2023-05-19T06:11:06.433Z,96198.00
2023-05-19T06:12:06.594Z,96196.00
2023-05-19T06:13:05.537Z,96194.00
2023-05-19T06:14:06.606Z,96194.00
2023-05-19T06:15:06.692Z,96196.00
2023-05-19T06:16:06.750Z,96194.00
2023-05-19T06:17:05.714Z,96192.00
2023-05-19T06:18:06.861Z,96196.00
2023-05-19T06:19:06.817Z,96196.00
2023-05-19T06:20:05.790Z,96194.00
2023-05-19T06:21:05.848Z,96192.00
2023-05-19T06:22:05.992Z,96192.00
2023-05-19T06:23:05.911Z,96196.00
2023-05-19T06:24:07.141Z,96196.00
2023-05-19T06:25:05.982Z,96200.00
2023-05-19T06:26:06.060Z,96202.00
2023-05-19T06:27:06.055Z,96200.00
2023-05-19T06:28:07.161Z,96202.00
2023-05-19T06:29:07.418Z,96200.00
2023-05-19T06:30:07.310Z,96202.00
2023-05-19T06:31:07.320Z,96198.00
2023-05-19T06:32:06.298Z,96202.00
2023-05-19T06:33:07.425Z,96198.00
2023-05-19T06:34:06.374Z,96200.00
2023-05-19T06:35:06.430Z,96200.00
2023-05-19T06:36:06.392Z,96200.00
2023-05-19T06:37:07.422Z,96198.00
2023-05-19T06:38:07.468Z,96202.00
2023-05-19T06:39:06.504Z,96198.00
2023-05-19T06:40:07.468Z,96200.00
2023-05-19T06:41:07.810Z,96194.00
2023-05-19T06:42:06.568Z,96194.00
2023-05-19T06:43:07.618Z,96194.00
2023-05-19T06:44:06.998Z,96190.00
2023-05-19T06:45:06.750Z,96192.00
2023-05-19T06:46:06.848Z,96192.00
2023-05-19T06:47:06.848Z,96194.00
2023-05-19T06:48:06.910Z,96198.00
2023-05-19T06:49:06.872Z,96204.00
2023-05-19T06:50:08.005Z,96202.00
2023-05-19T06:51:07.041Z,96204.00
2023-05-19T06:52:08.063Z,96200.00
2023-05-19T06:53:06.967Z,96200.00
2023-05-19T06:54:08.030Z,96200.00
2023-05-19T06:55:08.084Z,96196.00
2023-05-19T06:56:07.152Z,96198.00
2023-05-19T06:57:07.215Z,96200.00
2023-05-19T06:58:07.892Z,96196.00
2023-05-19T06:59:07.316Z,96194.00
2023-05-19T07:00:07.350Z,96192.00
2023-05-19T07:01:08.439Z,96192.00
2023-05-19T07:02:08.562Z,96190.00
2023-05-19T07:03:08.575Z,96184.00
2023-05-19T07:04:08.599Z,96188.00
2023-05-19T07:05:08.563Z,96188.00
2023-05-19T07:06:08.668Z,96192.00
2023-05-19T07:07:08.596Z,96194.00
2023-05-19T07:08:08.700Z,96194.00
2023-05-19T07:09:08.736Z,96194.00
2023-05-19T07:10:07.693Z,96194.00
2023-05-19T07:11:07.730Z,96194.00
2023-05-19T07:12:08.765Z,96194.00
2023-05-19T07:13:07.927Z,96190.00
2023-05-19T07:14:08.885Z,96190.00
2023-05-19T07:15:07.909Z,96192.00
2023-05-19T07:16:07.945Z,96188.00
2023-05-19T07:17:09.081Z,96190.00
2023-05-19T07:18:08.049Z,96186.00
2023-05-19T07:19:09.178Z,96186.00
2023-05-19T07:20:08.143Z,96186.00
2023-05-19T07:21:09.289Z,96186.00
2023-05-19T07:22:09.251Z,96186.00
2023-05-19T07:23:09.411Z,96182.00
2023-05-19T07:24:09.276Z,96184.00
2023-05-19T07:25:09.231Z,96186.00
2023-05-19T07:26:09.302Z,96182.00
2023-05-19T07:27:09.272Z,96180.00
2023-05-19T07:28:08.272Z,96182.00
2023-05-19T07:29:09.395Z,96178.00
2023-05-19T07:30:08.461Z,96180.00
2023-05-19T07:31:08.356Z,96178.00
2023-05-19T07:32:08.566Z,96174.00
2023-05-19T07:33:09.420Z,96178.00
2023-05-19T07:34:08.669Z,96174.00
2023-05-19T07:35:08.530Z,96164.00
2023-05-19T07:36:09.577Z,96164.00
2023-05-19T07:37:09.787Z,96164.00
2023-05-19T07:38:09.672Z,96162.00
2023-05-19T07:39:10.004Z,96164.00
2023-05-19T07:40:09.822Z,96158.00
2023-05-19T07:41:08.894Z,96158.00
2023-05-19T07:42:09.187Z,96158.00
2023-05-19T07:43:08.935Z,96156.00
2023-05-19T07:44:09.045Z,96156.00
2023-05-19T07:45:10.107Z,96156.00
2023-05-19T07:46:10.231Z,96152.00
2023-05-19T07:47:09.041Z,96152.00
2023-05-19T07:48:10.154Z,96150.00
2023-05-19T07:49:09.106Z,96154.00
2023-05-19T07:50:10.113Z,96154.00
2023-05-19T07:51:09.165Z,96152.00
2023-05-19T07:52:10.182Z,96154.00
2023-05-19T07:53:09.196Z,96152.00
2023-05-19T07:54:09.289Z,96146.00
2023-05-19T07:55:10.227Z,96144.00
2023-05-19T07:56:10.271Z,96141.00
2023-05-19T07:57:10.321Z,96143.00
2023-05-19T07:58:09.362Z,96143.00
2023-05-19T07:59:10.466Z,96143.00
2023-05-19T08:00:09.440Z,96143.00
2023-05-19T08:01:09.448Z,96141.00
2023-05-19T08:02:10.728Z,96141.00
2023-05-19T08:03:09.714Z,96141.00
2023-05-19T08:04:11.903Z,96139.00
2023-05-19T08:05:10.573Z,96139.00
2023-05-19T08:06:09.677Z,96135.00
2023-05-19T08:07:10.513Z,96133.00
2023-05-19T08:08:10.745Z,96135.00
2023-05-19T08:09:09.504Z,96133.00
2023-05-19T08:10:10.507Z,96131.00
2023-05-19T08:11:10.516Z,96133.00
2023-05-19T08:12:10.519Z,96131.00
2023-05-19T08:13:09.483Z,96129.00
2023-05-19T08:14:10.466Z,96135.00
2023-05-19T08:15:09.585Z,96129.00
2023-05-19T08:16:10.498Z,96129.00
2023-05-19T08:17:10.621Z,96133.00
2023-05-19T08:18:09.561Z,96129.00
2023-05-19T08:19:10.646Z,96129.00
2023-05-19T08:20:09.636Z,96131.00
2023-05-19T08:21:09.642Z,96125.00
2023-05-19T08:22:09.415Z,96127.00
2023-05-19T08:23:09.488Z,96127.00
2023-05-19T08:24:10.423Z,96129.00
2023-05-19T08:25:10.440Z,96129.00
2023-05-19T08:26:10.414Z,96127.00
2023-05-19T08:27:10.489Z,96121.00
2023-05-19T08:28:10.504Z,96125.00
2023-05-19T08:29:09.422Z,96121.00
2023-05-19T08:30:10.364Z,96125.00
2023-05-19T08:31:10.494Z,96123.00
2023-05-19T08:32:12.439Z,96125.00
2023-05-19T08:33:09.483Z,96129.00
2023-05-19T08:34:10.356Z,96127.00
2023-05-19T08:35:09.325Z,96119.00
2023-05-19T08:36:09.398Z,96127.00
2023-05-19T08:37:09.403Z,96123.00
2023-05-19T08:38:10.316Z,96121.00
2023-05-19T08:39:10.419Z,96123.00
2023-05-19T08:40:10.325Z,96117.00
2023-05-19T08:41:10.324Z,96119.00
2023-05-19T08:42:09.288Z,96115.00
2023-05-19T08:43:10.319Z,96115.00
2023-05-19T08:44:10.286Z,96115.00
2023-05-19T08:45:10.449Z,96115.00
2023-05-19T08:46:09.325Z,96115.00
2023-05-19T08:47:10.373Z,96111.00
2023-05-19T08:48:09.373Z,96109.00
2023-05-19T08:49:10.332Z,96109.00
2023-05-19T08:50:09.240Z,96113.00
2023-05-19T08:51:10.249Z,96103.00
2023-05-19T08:52:09.323Z,96105.00
2023-05-19T08:53:18.121Z,96105.00
2023-05-19T08:54:10.287Z,96103.00
2023-05-19T08:55:10.221Z,96105.00
2023-05-19T08:56:10.235Z,96097.00
2023-05-19T08:57:10.189Z,96097.00
2023-05-19T08:58:10.158Z,96092.00
2023-05-19T08:59:10.153Z,96094.00
2023-05-19T09:00:10.224Z,96092.00
2023-05-19T09:01:09.186Z,96092.00
2023-05-19T09:02:10.206Z,96092.00
2023-05-19T09:03:18.053Z,96094.00
2023-05-19T09:04:10.338Z,96094.00
2023-05-19T09:05:10.339Z,96094.00
2023-05-19T09:06:09.212Z,96096.00
2023-05-19T09:07:09.120Z,96092.00
2023-05-19T09:08:09.219Z,96094.00
2023-05-19T09:09:09.093Z,96090.00
2023-05-19T09:10:09.114Z,96090.00
2023-05-19T09:11:09.089Z,96090.00
2023-05-19T09:12:09.109Z,96090.00
2023-05-19T09:13:10.165Z,96092.00
2023-05-19T09:14:10.066Z,96088.00
2023-05-19T09:15:10.121Z,96086.00
2023-05-19T09:16:10.056Z,96088.00
2023-05-19T09:17:09.154Z,96084.00
2023-05-19T09:18:09.136Z,96080.00
2023-05-19T09:19:09.055Z,96082.00
2023-05-19T09:20:09.050Z,96084.00
2023-05-19T09:21:09.036Z,96078.00
2023-05-19T09:22:10.136Z,96074.00
2023-05-19T09:23:10.002Z,96076.00
2023-05-19T09:24:10.195Z,96076.00
2023-05-19T09:25:10.123Z,96072.00
2023-05-19T09:26:09.997Z,96070.00
2023-05-19T09:27:09.001Z,96074.00
2023-05-19T09:28:08.977Z,96072.00
2023-05-19T09:29:10.040Z,96074.00
2023-05-19T09:30:10.078Z,96080.00
2023-05-19T09:31:09.962Z,96074.00
2023-05-19T09:32:09.970Z,96072.00
2023-05-19T09:33:08.965Z,96072.00
2023-05-19T09:34:08.942Z,96074.00
2023-05-19T09:35:09.949Z,96072.00
2023-05-19T09:36:09.111Z,96074.00
2023-05-19T09:37:09.010Z,96074.00
2023-05-19T09:38:10.027Z,96072.00
2023-05-19T09:39:10.189Z,96074.00
2023-05-19T09:40:10.555Z,96070.00
2023-05-19T09:41:09.388Z,96064.00
2023-05-19T09:42:10.192Z,96062.00
2023-05-19T09:43:10.156Z,96060.00
2023-05-19T09:44:09.183Z,96058.00
2023-05-19T09:45:09.218Z,96058.00
2023-05-19T09:46:11.183Z,96056.00
2023-05-19T09:47:10.278Z,96062.00
2023-05-19T09:48:09.325Z,96058.00
2023-05-19T09:49:10.216Z,96052.00
2023-05-19T09:50:10.228Z,96054.00
2023-05-19T09:51:09.397Z,96052.00
2023-05-19T09:52:10.068Z,96052.00
2023-05-19T09:53:09.211Z,96052.00
2023-05-19T09:54:09.232Z,96048.00
2023-05-19T09:55:09.196Z,96048.00
2023-05-19T09:56:10.474Z,96052.00
2023-05-19T09:57:10.270Z,96046.00
2023-05-19T09:58:12.110Z,96052.00
2023-05-19T09:59:09.149Z,96050.00
2023-05-19T10:00:09.195Z,96048.00
2023-05-19T10:01:10.184Z,96046.00
2023-05-19T10:02:09.144Z,96044.00
2023-05-19T10:03:10.168Z,96044.00
2023-05-19T10:04:10.347Z,96041.00
2023-05-19T10:05:10.214Z,96042.00
2023-05-19T10:06:10.156Z,96039.00
2023-05-19T10:07:09.099Z,96035.00
2023-05-19T10:08:10.092Z,96033.00
2023-05-19T10:09:10.093Z,96029.00
2023-05-19T10:10:10.162Z,96029.00
2023-05-19T10:11:10.083Z,96035.00
2023-05-19T10:12:10.170Z,96035.00
2023-05-19T10:13:10.310Z,96035.00
2023-05-19T10:14:09.053Z,96033.00
2023-05-19T10:15:10.060Z,96037.00
2023-05-19T10:16:09.288Z,96035.00
2023-05-19T10:17:09.036Z,96033.00
2023-05-19T10:18:09.099Z,96033.00
2023-05-19T10:19:10.048Z,96031.00
2023-05-19T10:20:09.007Z,96027.00
2023-05-19T10:21:09.030Z,96031.00
2023-05-19T10:22:08.984Z,96027.00
2023-05-19T10:23:10.002Z,96023.00
2023-05-19T10:24:11.479Z,96027.00
2023-05-19T10:25:10.120Z,96023.00
2023-05-19T10:26:09.981Z,96021.00
2023-05-19T10:27:08.978Z,96023.00
2023-05-19T10:28:09.949Z,96023.00
2023-05-19T10:29:10.013Z,96023.00
2023-05-19T10:30:11.498Z,96025.00
2023-05-19T10:31:09.971Z,96019.00
2023-05-19T10:32:08.950Z,96023.00
2023-05-19T10:33:09.962Z,96017.00
2023-05-19T10:34:09.038Z,96015.00
2023-05-19T10:35:09.903Z,96017.00
2023-05-19T10:36:09.913Z,96015.00
2023-05-19T10:37:09.950Z,96011.00
2023-05-19T10:38:09.894Z,96009.00
2023-05-19T10:39:08.876Z,96007.00
2023-05-19T10:40:08.892Z,96011.00
2023-05-19T10:41:10.037Z,96007.00
2023-05-19T10:42:09.849Z,96011.00
2023-05-19T10:43:09.903Z,96009.00
2023-05-19T10:44:09.846Z,96007.00
2023-05-19T10:45:08.840Z,96007.00
2023-05-19T10:46:09.840Z,96011.00
2023-05-19T10:47:08.882Z,96011.00
2023-05-19T10:48:08.851Z,96007.00
2023-05-19T10:49:08.917Z,96011.00
2023-05-19T10:50:08.825Z,96011.00
2023-05-19T10:51:10.354Z,96007.00
2023-05-19T10:52:08.780Z,96005.00
2023-05-19T10:53:09.796Z,96007.00
2023-05-19T10:54:08.783Z,96003.00
2023-05-19T10:55:09.851Z,96001.00
2023-05-19T10:56:09.793Z,96003.00
2023-05-19T10:57:08.786Z,96005.00
2023-05-19T10:58:09.824Z,96005.00
2023-05-19T10:59:09.738Z,96003.00
2023-05-19T11:00:09.898Z,96007.00
2023-05-19T11:01:09.792Z,96003.00
2023-05-19T11:02:09.793Z,96001.00
2023-05-19T11:03:08.761Z,96001.00
2023-05-19T11:04:09.796Z,96003.00
2023-05-19T11:05:09.718Z,96001.00
2023-05-19T11:06:08.694Z,95999.00
2023-05-19T11:07:09.819Z,95995.00
2023-05-19T11:08:09.013Z,95999.00
2023-05-19T11:09:08.855Z,95994.00
2023-05-19T11:10:08.847Z,95994.00
2023-05-19T11:11:09.873Z,95994.00
2023-05-19T11:12:10.019Z,95994.00
2023-05-19T11:13:09.116Z,95994.00
2023-05-19T11:14:09.953Z,95995.00
2023-05-19T11:15:09.006Z,95995.00
2023-05-19T11:16:10.055Z,95994.00
2023-05-19T11:17:10.054Z,95995.00
2023-05-19T11:18:09.100Z,95995.00
2023-05-19T11:19:09.272Z,95994.00
2023-05-19T11:20:09.269Z,95995.00
2023-05-19T11:21:10.223Z,95994.00
2023-05-19T11:22:09.257Z,95994.00
2023-05-19T11:23:09.732Z,95992.00
2023-05-19T11:24:10.365Z,95986.00
2023-05-19T11:25:10.357Z,95992.00
2023-05-19T11:26:10.381Z,95992.00
2023-05-19T11:27:09.436Z,95992.00
2023-05-19T11:28:09.463Z,95990.00
2023-05-19T11:29:09.609Z,95990.00
2023-05-19T11:30:09.826Z,95990.00
2023-05-19T11:31:10.589Z,95988.00
2023-05-19T11:32:09.667Z,95992.00
2023-05-19T11:33:09.698Z,95994.00
2023-05-19T11:34:09.756Z,95990.00
2023-05-19T11:35:09.742Z,95990.00
2023-05-19T11:36:10.919Z,95988.00
2023-05-19T11:37:10.799Z,95988.00
2023-05-19T11:38:10.879Z,95988.00
2023-05-19T11:39:10.880Z,95990.00
2023-05-19T11:40:10.910Z,95984.00
2023-05-19T11:41:10.964Z,95986.00
2023-05-19T11:42:11.304Z,95988.00
2023-05-19T11:43:10.068Z,95988.00
2023-05-19T11:44:10.095Z,95988.00
2023-05-19T11:45:10.185Z,95990.00